DW6102 Weather Reports


Display with metric or nautical units.
time (UTC)temp
F
wind
direction
speed
MPH
gust
MPH
rain 1hr
in
rain 24hr
in
rain mn
in
humidity
%
barometer
mb
20210621093021 91 80 1.0 4.0 0.00 0.00 0.00 33 1002.2
20210621091512 91 64 0.0 2.0 0.00 0.00 0.00 31 1001.9
20210621090049 92 97 0.0 3.0 0.00 0.00 0.00 32 1001.4
20210621084554 92 124 0.0 2.0 0.00 0.00 0.00 32 1001.4
20210621083050 93 103 0.0 2.0 0.00 0.00 0.00 32 1001.1
20210621081528 94 98 0.0 3.0 0.00 0.00 0.00 30 1001.0
20210621080015 94 102 0.0 2.0 0.00 0.00 0.00 30 1001.0
20210621074640 96 25 0.0 3.0 0.00 0.00 0.00 28 1000.8
20210621073122 96 283 2.0 7.0 0.00 0.00 0.00 27 1000.5
20210621071627 96 272 1.0 4.0 0.00 0.00 0.00 28 1000.5
20210621070138 96 265 0.0 5.0 0.00 0.00 0.00 28 1000.5
20210621064610 97 283 0.0 5.0 0.00 0.00 0.00 27 1000.5
20210621063130 97 257 1.0 4.0 0.00 0.00 0.00 27 1000.4
20210621061639 98 279 0.0 4.0 0.00 0.00 0.00 26 1000.3
20210621060152 99 323 2.0 8.0 0.00 0.00 0.00 25 1000.3
20210621054552 99 283 2.0 7.0 0.00 0.00 0.00 24 1000.1
20210621053051 99 255 2.0 7.0 0.00 0.00 0.00 23 1000.0
20210621051526 100 260 1.0 5.0 0.00 0.00 0.00 22 1000.1
20210621050012 101 298 2.0 6.0 0.00 0.00 0.00 20 1000.0
20210621044643 101 277 2.0 9.0 0.00 0.00 0.00 19 999.9
20210621043141 102 300 1.0 7.0 0.00 0.00 0.00 18 999.7
20210621041646 102 269 2.0 7.0 0.00 0.00 0.00 17 999.5
20210621040138 103 277 2.0 7.0 0.00 0.00 0.00 16 999.2
20210621034732 103 277 3.0 8.0 0.00 0.00 0.00 15 999.0
20210621033216 104 291 1.0 6.0 0.00 0.00 0.00 14 998.8
20210621031655 104 302 1.0 5.0 0.00 0.00 0.00 14 998.6
20210621030058 105 276 1.0 5.0 0.00 0.00 0.00 13 998.4
20210621024616 106 283 1.0 5.0 0.00 0.00 0.00 12 998.2
20210621023058 107 257 1.0 5.0 0.00 0.00 0.00 12 998.1
20210621021540 107 260 3.0 10.0 0.00 0.00 0.00 11 998.0
20210621020024 108 235 3.0 8.0 0.00 0.00 0.00 10 997.8
20210621014527 109 260 2.0 5.0 0.00 0.00 0.00 10 997.7
20210621013055 110 255 2.0 11.0 0.00 0.00 0.00 10 997.6
20210621011535 111 255 2.0 9.0 0.00 0.00 0.00 9 997.5
20210621010017 111 309 3.0 9.0 0.00 0.00 0.00 9 997.5
20210621004529 111 308 2.0 8.0 0.00 0.00 0.00 10 997.5
20210621003038 112 294 3.0 9.0 0.00 0.00 0.00 10 997.5
20210621001750 112 280 2.0 9.0 0.00 0.00 0.00 10 997.4
20210621000143 112 276 3.0 8.0 0.00 0.00 0.00 11 997.7
20210620234629 112 307 1.0 8.0 0.00 0.00 0.00 12 997.8
20210620233058 112 78 2.0 10.0 0.00 0.00 0.00 11 997.9
20210620231536 112 344 4.0 8.0 0.00 0.00 0.00 11 998.2
20210620230022 112 242 1.0 6.0 0.00 0.00 0.00 12 998.2
20210620224504 112 263 3.0 10.0 0.00 0.00 0.00 12 998.4
20210620223002 112 278 2.0 9.0 0.00 0.00 0.00 13 998.4
20210620221606 111 294 3.0 11.0 0.00 0.00 0.00 12 998.6
20210620220139 111 293 2.0 10.0 0.00 0.00 0.00 12 998.8
20210620214537 111 264 2.0 10.0 0.00 0.00 0.00 13 998.9
20210620213104 111 255 4.0 11.0 0.00 0.00 0.00 12 999.2
20210620211527 111 218 3.0 9.0 0.00 0.00 0.00 11 999.3
20210620204610 111 321 1.0 6.0 0.00 0.00 0.00 14 999.5
20210620203050 111 352 3.0 7.0 0.00 0.00 0.00 13 999.6
20210620201547 111 295 3.0 6.0 0.00 0.00 0.00 13 999.8
20210620200058 111 243 1.0 3.0 0.00 0.00 0.00 14 999.8
20210620194532 111 283 1.0 5.0 0.00 0.00 0.00 14 999.9
20210620193047 111 115 0.0 3.0 0.00 0.00 0.00 14 1000.1
20210620191747 109 352 1.0 5.0 0.00 0.00 0.00 15 1000.2
20210620190053 108 288 2.0 6.0 0.00 0.00 0.00 17 1000.3
20210620184545 109 285 2.0 6.0 0.00 0.00 0.00 17 1000.5
20210620183141 108 204 2.0 5.0 0.00 0.00 0.00 16 1000.6
20210620181502 108 32 0.0 3.0 0.00 0.00 0.00 19 1000.6
20210620180002 107 112 0.0 3.0 0.00 0.00 0.00 18 1000.7
20210620174547 105 307 0.0 2.0 0.00 0.00 0.00 20 1000.8
20210620173214 104 58 1.0 3.0 0.00 0.00 0.00 20 1000.9
20210620171525 103 283 1.0 3.0 0.00 0.00 0.00 21 1000.9
20210620170020 102 283 0.0 3.0 0.00 0.00 0.00 21 1000.8
20210620164642 102 198 0.0 2.0 0.00 0.00 0.00 23 1000.7
20210620163114 101 64 0.0 3.0 0.00 0.00 0.00 22 1000.6
20210620161546 99 238 0.0 2.0 0.00 0.00 0.00 23 1000.6
20210620160054 99 277 0.0 2.0 0.00 0.00 0.00 23 1000.5
20210620154555 99 99 0.0 2.0 0.00 0.00 0.00 22 1000.6
20210620153018 98 238 0.0 3.0 0.00 0.00 0.00 24 1000.6
20210620151523 97 162 0.0 2.0 0.00 0.00 0.00 25 1000.6
20210620150015 95 122 0.0 3.0 0.00 0.00 0.00 25 1000.5
20210620144513 95 121 0.0 4.0 0.00 0.00 0.00 27 1000.3
20210620143018 92 114 0.0 1.0 0.00 0.00 0.00 31 1000.2
20210620141510 90 106 0.0 1.0 0.00 0.00 0.00 32 1000.0
20210620140012 89 110 0.0 1.0 0.00 0.00 0.00 36 999.8
20210620134621 86 110 0.0 1.0 0.00 0.00 0.00 39 999.6
20210620133117 87 110 0.0 1.0 0.00 0.00 0.00 36 999.3
20210620131548 85 8 0.0 1.0 0.00 0.00 0.00 39 999.1
20210620130035 84 7 0.0 0.0 0.00 0.00 0.00 38 999.1
20210620124521 84 3 0.0 1.0 0.00 0.00 0.00 37 998.9
20210620123045 83 49 0.0 1.0 0.00 0.00 0.00 39 998.5
20210620121607 83 48 0.0 0.0 0.00 0.00 0.00 40 998.5
20210620120129 84 49 0.0 0.0 0.00 0.00 0.00 38 998.0
20210620114529 85 49 0.0 1.0 0.00 0.00 0.00 36 997.8
20210620113027 87 46 0.0 0.0 0.00 0.00 0.00 33 997.6
20210620111702 88 49 0.0 1.0 0.00 0.00 0.00 32 997.6
20210620110125 88 115 0.0 2.0 0.00 0.00 0.00 31 997.3
20210620104609 89 113 0.0 1.0 0.00 0.00 0.00 30 997.4
20210620103106 89 98 0.0 1.0 0.00 0.00 0.00 30 997.3
20210620101530 90 110 0.0 1.0 0.00 0.00 0.00 29 997.1
20210620100010 91 108 0.0 1.0 0.00 0.00 0.00 28 997.1
20210620094620 91 342 1.0 2.0 0.00 0.00 0.00 29 997.1